Time;durP1;ratioP1;P1;durP2;ratioP2;P2;SDS_P1;SDS_P2;PMS_P1;PMS_P2;Temp;Humidity;BMP_temperature;BMP_pressure;BME280_temperature;BME280_humidity;BME280_pressure;Samples;Min_cycle;Max_cycle;Signal;HPM_P1;HPM_P2
2022/05/30 00:01:21;;;;;;;15.77;3.70;;;;;;;;;;5047288;28;20386;-66
2022/05/30 00:03:47;;;;;;;18.05;4.13;;;;;;;;;;5048809;28;20360;-65
2022/05/30 00:06:15;;;;;;;17.08;4.10;;;;;;;;;;5049116;28;20148;-66
2022/05/30 00:08:41;;;;;;;13.07;4.00;;;;;;;;;;5048938;28;20056;-66
2022/05/30 00:11:09;;;;;;;13.77;3.38;;;;;;;;;;5048722;28;20094;-66
2022/05/30 00:13:35;;;;;;;16.33;4.55;;;;;;;;;;5049194;28;20430;-66
2022/05/30 00:16:05;;;;;;;15.60;3.92;;;;;;;;;;5048933;28;20049;-66
2022/05/30 00:18:31;;;;;;;13.75;3.58;;;;;;;;;;5048695;28;20056;-66
2022/05/30 00:20:58;;;;;;;16.38;4.30;;;;;;;;;;5048559;28;20060;-65
2022/05/30 00:23:24;;;;;;;14.48;4.03;;;;;;;;;;5048540;28;20491;-66
2022/05/30 00:25:50;;;;;;;15.70;3.63;;;;;;;;;;5048315;28;20149;-65
2022/05/30 00:28:16;;;;;;;15.25;4.47;;;;;;;;;;5046981;28;20041;-67
2022/05/30 00:30:43;;;;;;;11.13;3.67;;;;;;;;;;5048682;28;20139;-66
2022/05/30 00:33:10;;;;;;;12.55;3.58;;;;;;;;;;5048285;28;20124;-66
2022/05/30 00:35:36;;;;;;;14.85;4.05;;;;;;;;;;5048610;28;20044;-66
2022/05/30 00:38:02;;;;;;;12.55;3.63;;;;;;;;;;5048238;28;20049;-66
2022/05/30 00:40:28;;;;;;;;;;;;;;;;;;5048711;28;20106;-66
2022/05/30 00:42:54;;;;;;;14.13;3.50;;;;;;;;;;5048381;28;19924;-65
2022/05/30 00:45:20;;;;;;;10.60;2.97;;;;;;;;;;5048460;28;20057;-67
2022/05/30 00:47:47;;;;;;;12.10;3.00;;;;;;;;;;5046868;28;20133;-66
2022/05/30 00:50:13;;;;;;;;;;;;;;;;;;5048850;28;20063;-66
2022/05/30 00:52:41;;;;;;;12.50;3.10;;;;;;;;;;5048334;28;20259;-66
2022/05/30 00:55:10;;;;;;;13.90;3.10;;;;;;;;;;5048588;28;20041;-66
2022/05/30 00:57:38;;;;;;;11.95;3.20;;;;;;;;;;5048152;28;20049;-66
2022/05/30 01:00:04;;;;;;;12.10;3.13;;;;;;;;;;5048053;28;20049;-67
2022/05/30 01:02:33;;;;;;;10.98;2.95;;;;;;;;;;5048445;28;20092;-67
2022/05/30 01:07:46;;;;;;;11.55;3.05;;;;;;;;;;5048276;28;20158;-66
2022/05/30 01:10:13;;;;;;;13.18;3.17;;;;;;;;;;5047914;28;20061;-66
2022/05/30 01:12:43;;;;;;;9.13;2.60;;;;;;;;;;5047809;28;20092;-66
2022/05/30 01:15:13;;;;;;;8.23;2.80;;;;;;;;;;5052260;28;20131;-66
2022/05/30 01:17:58;;;;;;;10.48;3.10;;;;;;;;;;5051753;28;20057;-67
2022/05/30 01:20:40;;;;;;;7.90;2.72;;;;;;;;;;5051697;28;20049;-66
2022/05/30 01:23:06;;;;;;;9.73;3.00;;;;;;;;;;5051824;28;20068;-66
2022/05/30 01:25:39;;;;;;;9.27;2.85;;;;;;;;;;5051870;28;20047;-66
2022/05/30 01:28:09;;;;;;;10.60;2.90;;;;;;;;;;5050544;28;20061;-65
2022/05/30 01:30:37;;;;;;;11.65;2.80;;;;;;;;;;5051167;28;20474;-66
2022/05/30 01:33:04;;;;;;;11.05;2.83;;;;;;;;;;5051984;28;20132;-65
2022/05/30 01:35:30;;;;;;;12.45;2.90;;;;;;;;;;5051726;28;20106;-66
2022/05/30 01:37:56;;;;;;;;;;;;;;;;;;5050315;28;20123;-66
2022/05/30 01:40:23;;;;;;;9.55;2.88;;;;;;;;;;5051552;28;20030;-66
2022/05/30 01:42:49;;;;;;;11.23;3.15;;;;;;;;;;5051397;28;20143;-66
2022/05/30 01:45:16;;;;;;;11.32;3.20;;;;;;;;;;5032914;28;20053;-66
2022/05/30 01:47:42;;;;;;;;;;;;;;;;;;5051991;28;20120;-66
2022/05/30 01:50:08;;;;;;;9.50;2.90;;;;;;;;;;5051193;28;19978;-66
2022/05/30 01:52:34;;;;;;;9.57;2.72;;;;;;;;;;5051497;28;20117;-66
2022/05/30 01:55:00;;;;;;;8.52;2.88;;;;;;;;;;5051471;28;20120;-66
2022/05/30 01:57:26;;;;;;;10.10;2.83;;;;;;;;;;5051274;28;20045;-66
2022/05/30 01:59:52;;;;;;;8.70;2.88;;;;;;;;;;5051566;28;20045;-66
2022/05/30 02:02:18;;;;;;;10.70;3.10;;;;;;;;;;5051172;28;20128;-66
2022/05/30 02:04:44;;;;;;;9.77;3.03;;;;;;;;;;5051267;28;20064;-66
2022/05/30 02:07:10;;;;;;;13.18;3.00;;;;;;;;;;5051768;28;20115;-66
2022/05/30 02:09:37;;;;;;;7.43;2.80;;;;;;;;;;5049855;28;20136;-66
2022/05/30 02:12:03;;;;;;;8.00;2.90;;;;;;;;;;5049856;28;20041;-65
2022/05/30 02:14:29;;;;;;;12.82;2.97;;;;;;;;;;5051164;28;20058;-66
2022/05/30 02:17:04;;;;;;;8.65;3.03;;;;;;;;;;5051063;28;20112;-66
2022/05/30 02:19:50;;;;;;;13.45;3.50;;;;;;;;;;5051188;28;20093;-65
2022/05/30 02:22:18;;;;;;;12.98;3.58;;;;;;;;;;5050281;28;20111;-66
2022/05/30 02:24:44;;;;;;;10.30;2.75;;;;;;;;;;5050049;28;20457;-66
2022/05/30 02:27:11;;;;;;;12.05;3.10;;;;;;;;;;5050937;28;20045;-66
2022/05/30 02:29:38;;;;;;;11.07;3.20;;;;;;;;;;5050823;28;20100;-67
2022/05/30 02:32:04;;;;;;;12.40;3.65;;;;;;;;;;5050714;28;20115;-66
2022/05/30 02:37:14;;;;;;;8.27;3.10;;;;;;;;;;5050568;28;20212;-65
2022/05/30 02:39:41;;;;;;;10.45;3.40;;;;;;;;;;5050767;28;20073;-66
2022/05/30 02:42:07;;;;;;;;;;;;;;;;;;5050620;28;20107;-66
2022/05/30 02:44:34;;;;;;;10.50;3.40;;;;;;;;;;5050502;28;20019;-66
2022/05/30 02:47:00;;;;;;;11.35;3.28;;;;;;;;;;5050713;28;20165;-66
2022/05/30 02:49:27;;;;;;;10.50;3.10;;;;;;;;;;5050277;28;20060;-66
2022/05/30 02:51:54;;;;;;;8.73;3.00;;;;;;;;;;5050297;28;20051;-66
2022/05/30 02:54:20;;;;;;;;;;;;;;;;;;5050785;28;20053;-66
2022/05/30 02:56:50;;;;;;;12.02;3.33;;;;;;;;;;5050318;28;19928;-67
2022/05/30 02:59:16;;;;;;;9.40;3.08;;;;;;;;;;5050428;28;20048;-66
2022/05/30 03:01:42;;;;;;;10.90;2.97;;;;;;;;;;5050263;28;20346;-67
2022/05/30 03:04:08;;;;;;;10.82;3.50;;;;;;;;;;5049786;28;20473;-66
2022/05/30 03:06:35;;;;;;;9.43;3.05;;;;;;;;;;5050182;28;20045;-66
2022/05/30 03:09:01;;;;;;;10.80;3.40;;;;;;;;;;5050134;28;20461;-66
2022/05/30 03:11:27;;;;;;;9.85;3.42;;;;;;;;;;5050122;28;20113;-66
2022/05/30 03:13:53;;;;;;;8.40;3.20;;;;;;;;;;5050052;28;20461;-66
2022/05/30 03:16:19;;;;;;;11.48;3.00;;;;;;;;;;5050065;28;20394;-65
2022/05/30 03:18:45;;;;;;;12.50;2.90;;;;;;;;;;5050051;28;20064;-66
2022/05/30 03:21:12;;;;;;;9.77;3.03;;;;;;;;;;5049937;28;20075;-65
2022/05/30 03:23:38;;;;;;;9.57;3.45;;;;;;;;;;5050152;28;20172;-65
2022/05/30 03:26:05;;;;;;;9.93;3.28;;;;;;;;;;5049677;28;20045;-65
2022/05/30 03:28:32;;;;;;;9.50;3.20;;;;;;;;;;5049475;28;20064;-66
2022/05/30 03:31:01;;;;;;;11.48;3.38;;;;;;;;;;5049315;28;20353;-66
2022/05/30 03:33:28;;;;;;;12.77;3.72;;;;;;;;;;5049185;28;20049;-66
2022/05/30 03:35:54;;;;;;;12.65;3.65;;;;;;;;;;5048718;28;20114;-66
2022/05/30 03:38:20;;;;;;;;;;;;;;;;;;5049391;28;20060;-65
2022/05/30 03:40:46;;;;;;;12.40;3.85;;;;;;;;;;5048538;28;19933;-66
2022/05/30 03:43:13;;;;;;;14.27;4.35;;;;;;;;;;5048223;28;20090;-66
2022/05/30 03:45:42;;;;;;;11.43;3.40;;;;;;;;;;5048059;28;20065;-65
2022/05/30 03:48:10;;;;;;;12.65;4.00;;;;;;;;;;5047779;28;20049;-65
2022/05/30 03:50:37;;;;;;;11.98;4.40;;;;;;;;;;5047906;28;20041;-65
2022/05/30 03:53:06;;;;;;;11.65;3.80;;;;;;;;;;5047583;28;20214;-65
2022/05/30 03:55:34;;;;;;;16.88;4.15;;;;;;;;;;5029691;28;20068;-65
2022/05/30 03:58:04;;;;;;;11.65;3.72;;;;;;;;;;5048224;28;20055;-65
2022/05/30 04:00:31;;;;;;;13.90;4.20;;;;;;;;;;5047539;28;20428;-65
2022/05/30 04:02:58;;;;;;;15.55;4.40;;;;;;;;;;5047843;28;20123;-65
2022/05/30 04:05:24;;;;;;;13.45;4.22;;;;;;;;;;5047771;28;20048;-65
2022/05/30 04:07:50;;;;;;;14.40;4.45;;;;;;;;;;5047671;28;20115;-65
2022/05/30 04:10:16;;;;;;;14.93;4.07;;;;;;;;;;5048001;28;20049;-65
2022/05/30 04:12:42;;;;;;;14.50;4.57;;;;;;;;;;5046528;28;20118;-65
2022/05/30 04:15:09;;;;;;;12.73;4.10;;;;;;;;;;5046544;28;20052;-65
2022/05/30 04:17:37;;;;;;;13.13;4.30;;;;;;;;;;5048336;28;20382;-65
2022/05/30 04:20:04;;;;;;;14.27;4.30;;;;;;;;;;5048735;28;20057;-65
2022/05/30 04:22:30;;;;;;;14.43;4.38;;;;;;;;;;5046915;28;20131;-65
2022/05/30 04:24:56;;;;;;;;;;;;;;;;;;5049108;28;20163;-66
2022/05/30 04:27:23;;;;;;;14.05;4.68;;;;;;;;;;5048154;28;19931;-65
2022/05/30 04:29:49;;;;;;;;;;;;;;;;;;5048397;28;20076;-65
2022/05/30 04:32:16;;;;;;;10.85;4.20;;;;;;;;;;5047792;28;19921;-65
2022/05/30 04:34:42;;;;;;;11.23;4.28;;;;;;;;;;5047879;28;20049;-65
2022/05/30 04:37:09;;;;;;;10.65;3.88;;;;;;;;;;5048189;28;20053;-65
2022/05/30 04:39:35;;;;;;;;;;;;;;;;;;5048192;28;20079;-65
2022/05/30 04:42:01;;;;;;;11.55;4.05;;;;;;;;;;5047957;28;20332;-66
2022/05/30 04:44:27;;;;;;;13.90;4.53;;;;;;;;;;5048341;28;20167;-65
2022/05/30 04:46:57;;;;;;;11.10;4.32;;;;;;;;;;5048290;28;20095;-66
2022/05/30 04:49:24;;;;;;;27.05;4.95;;;;;;;;;;5047814;28;20159;-65
2022/05/30 04:51:50;;;;;;;15.02;4.43;;;;;;;;;;5048184;28;20067;-65
2022/05/30 04:54:17;;;;;;;11.02;4.30;;;;;;;;;;5047843;28;20075;-65
2022/05/30 04:56:43;;;;;;;13.95;5.30;;;;;;;;;;5047958;28;20127;-65
2022/05/30 04:59:10;;;;;;;14.60;4.30;;;;;;;;;;5048183;28;20044;-65
2022/05/30 05:01:36;;;;;;;12.35;4.15;;;;;;;;;;5047950;28;20113;-64
2022/05/30 05:04:04;;;;;;;18.17;4.60;;;;;;;;;;5047947;28;20476;-64
2022/05/30 05:06:30;;;;;;;11.70;4.15;;;;;;;;;;5047907;28;20057;-64
2022/05/30 05:08:56;;;;;;;12.88;4.55;;;;;;;;;;5047903;28;20053;-65
2022/05/30 05:11:30;;;;;;;14.15;4.70;;;;;;;;;;5046354;28;20515;-65
2022/05/30 05:13:56;;;;;;;11.25;4.07;;;;;;;;;;5047896;28;20384;-65
2022/05/30 05:16:26;;;;;;;12.30;4.20;;;;;;;;;;5048061;28;20117;-65
2022/05/30 05:18:53;;;;;;;14.18;4.82;;;;;;;;;;5046575;28;20152;-64
2022/05/30 05:21:19;;;;;;;;;;;;;;;;;;5048490;28;20489;-65
2022/05/30 05:23:45;;;;;;;12.80;4.50;;;;;;;;;;5048003;28;19971;-64
2022/05/30 05:26:11;;;;;;;11.40;3.95;;;;;;;;;;5047991;28;20057;-64
2022/05/30 05:28:38;;;;;;;16.83;4.13;;;;;;;;;;5047020;28;20441;-64
2022/05/30 05:31:06;;;;;;;11.10;4.32;;;;;;;;;;5046371;28;20107;-64
2022/05/30 05:33:32;;;;;;;10.07;4.50;;;;;;;;;;5047368;28;20486;-65
2022/05/30 05:35:59;;;;;;;14.85;4.45;;;;;;;;;;5047451;28;20052;-65
2022/05/30 05:38:25;;;;;;;13.90;5.00;;;;;;;;;;5047012;28;20125;-65
2022/05/30 05:40:52;;;;;;;15.07;6.63;;;;;;;;;;5047142;28;20044;-65
2022/05/30 05:43:19;;;;;;;16.23;7.50;;;;;;;;;;5046372;28;20057;-65
2022/05/30 05:45:46;;;;;;;11.75;5.13;;;;;;;;;;5045437;28;20053;-65
2022/05/30 05:48:13;;;;;;;14.95;4.00;;;;;;;;;;5047086;28;20460;-64
2022/05/30 05:50:40;;;;;;;14.43;4.03;;;;;;;;;;5046524;28;20583;-65
2022/05/30 05:53:06;;;;;;;15.07;3.83;;;;;;;;;;5046755;28;20049;-65
2022/05/30 05:55:32;;;;;;;10.55;3.63;;;;;;;;;;5046481;28;20056;-65
2022/05/30 05:57:58;;;;;;;9.30;3.90;;;;;;;;;;5046971;28;20071;-65
2022/05/30 06:00:24;;;;;;;10.68;3.90;;;;;;;;;;5047724;28;20045;-65
2022/05/30 06:02:50;;;;;;;10.57;3.85;;;;;;;;;;5049998;28;20081;-65
2022/05/30 06:05:17;;;;;;;14.07;3.90;;;;;;;;;;5048311;28;20052;-65
2022/05/30 06:07:43;;;;;;;11.88;3.58;;;;;;;;;;5049994;28;20132;-65
2022/05/30 06:10:11;;;;;;;9.88;3.30;;;;;;;;;;5049908;28;20075;-65
2022/05/30 06:12:40;;;;;;;8.48;2.70;;;;;;;;;;5049901;28;20081;-64
2022/05/30 06:15:06;;;;;;;9.10;2.72;;;;;;;;;;5050215;28;20106;-65
2022/05/30 06:17:32;;;;;;;;;;;;;;;;;;5050393;28;20064;-65
2022/05/30 06:19:59;;;;;;;11.70;2.80;;;;;;;;;;5050333;28;19995;-66
2022/05/30 06:22:25;;;;;;;;;;;;;;;;;;5050247;28;20359;-67
2022/05/30 06:24:51;;;;;;;9.27;2.90;;;;;;;;;;5049646;28;19927;-65
2022/05/30 06:27:19;;;;;;;7.72;2.53;;;;;;;;;;5048387;28;20075;-66
2022/05/30 06:29:45;;;;;;;9.07;2.33;;;;;;;;;;5049728;28;20083;-65
2022/05/30 06:32:12;;;;;;;15.55;3.97;;;;;;;;;;5049684;28;20041;-66
2022/05/30 06:34:38;;;;;;;8.13;2.45;;;;;;;;;;5049847;28;20119;-66
2022/05/30 06:37:04;;;;;;;9.00;2.40;;;;;;;;;;5049180;28;20472;-67
2022/05/30 06:39:30;;;;;;;7.85;2.20;;;;;;;;;;5050011;28;20080;-66
2022/05/30 06:41:57;;;;;;;7.50;2.35;;;;;;;;;;5047494;28;20398;-66
2022/05/30 06:44:23;;;;;;;7.65;2.28;;;;;;;;;;5047851;28;20150;-66
2022/05/30 06:46:50;;;;;;;8.00;2.58;;;;;;;;;;5049847;28;20111;-66
2022/05/30 06:49:16;;;;;;;8.43;2.22;;;;;;;;;;5049501;28;20045;-66
2022/05/30 06:51:44;;;;;;;8.10;2.40;;;;;;;;;;5049510;28;20041;-65
2022/05/30 06:54:10;;;;;;;8.07;2.35;;;;;;;;;;5049552;28;20056;-67
2022/05/30 06:56:37;;;;;;;8.88;2.25;;;;;;;;;;5049414;28;20048;-66
2022/05/30 06:59:03;;;;;;;10.23;2.13;;;;;;;;;;5049422;28;20126;-68
2022/05/30 07:01:31;;;;;;;9.80;2.38;;;;;;;;;;5049100;28;20052;-66
2022/05/30 07:03:57;;;;;;;7.90;2.63;;;;;;;;;;5048776;28;20048;-66
2022/05/30 07:06:28;;;;;;;8.43;2.42;;;;;;;;;;5049345;28;20092;-66
2022/05/30 07:08:54;;;;;;;7.05;2.53;;;;;;;;;;5048930;28;20064;-66
2022/05/30 07:11:21;;;;;;;9.77;2.42;;;;;;;;;;5048596;28;20078;-66
2022/05/30 07:13:47;;;;;;;9.73;2.58;;;;;;;;;;5049028;28;20362;-65
2022/05/30 07:16:13;;;;;;;11.25;2.90;;;;;;;;;;5050120;28;20052;-65
2022/05/30 07:18:40;;;;;;;12.55;3.05;;;;;;;;;;5049789;28;20056;-64
2022/05/30 07:21:08;;;;;;;8.23;2.80;;;;;;;;;;5050004;28;20175;-64
2022/05/30 07:23:35;;;;;;;6.82;2.38;;;;;;;;;;5050004;28;20460;-64
2022/05/30 07:26:02;;;;;;;9.02;2.70;;;;;;;;;;5050101;28;20493;-64
2022/05/30 07:28:29;;;;;;;11.60;2.90;;;;;;;;;;5050081;28;20132;-64
2022/05/30 07:30:56;;;;;;;10.45;3.00;;;;;;;;;;5049883;28;20060;-64
2022/05/30 07:33:22;;;;;;;10.82;3.03;;;;;;;;;;5050006;28;20049;-64
2022/05/30 07:35:48;;;;;;;10.77;2.90;;;;;;;;;;5049884;28;20061;-64
2022/05/30 07:38:14;;;;;;;7.82;3.00;;;;;;;;;;5049768;28;20141;-64
2022/05/30 07:40:40;;;;;;;10.40;3.13;;;;;;;;;;5049487;28;20486;-64
2022/05/30 07:43:06;;;;;;;10.57;3.20;;;;;;;;;;5047427;28;20096;-64
2022/05/30 07:45:32;;;;;;;12.68;3.22;;;;;;;;;;5049503;28;20049;-64
2022/05/30 07:47:58;;;;;;;10.30;3.22;;;;;;;;;;5047418;28;20048;-64
2022/05/30 07:50:24;;;;;;;8.48;2.85;;;;;;;;;;5048963;28;20550;-64
2022/05/30 07:52:50;;;;;;;8.30;2.70;;;;;;;;;;5047588;28;20512;-64
2022/05/30 07:55:16;;;;;;;6.95;2.80;;;;;;;;;;5047659;28;20057;-65
2022/05/30 07:57:51;;;;;;;8.65;2.70;;;;;;;;;;5049044;28;20048;-66
2022/05/30 08:00:18;;;;;;;7.72;2.45;;;;;;;;;;5048895;28;20072;-65
2022/05/30 08:02:45;;;;;;;9.85;3.10;;;;;;;;;;5048744;28;20228;-65
2022/05/30 08:05:10;;;;;;;;;;;;;;;;;;5049553;28;20076;-65
2022/05/30 08:07:37;;;;;;;12.27;3.35;;;;;;;;;;5048952;28;20030;-65
2022/05/30 08:10:03;;;;;;;;;;;;;;;;;;5049124;28;20457;-64
2022/05/30 08:12:29;;;;;;;10.75;3.20;;;;;;;;;;5048977;28;20077;-65
2022/05/30 08:14:55;;;;;;;9.30;3.00;;;;;;;;;;5048516;28;20044;-64
2022/05/30 08:17:22;;;;;;;7.65;2.70;;;;;;;;;;5048855;28;20350;-65
2022/05/30 08:19:48;;;;;;;13.50;2.80;;;;;;;;;;5047255;28;20163;-64
2022/05/30 08:22:14;;;;;;;9.15;3.05;;;;;;;;;;5048191;28;20450;-65
2022/05/30 08:24:42;;;;;;;6.43;2.17;;;;;;;;;;5048474;28;20049;-65
2022/05/30 08:27:08;;;;;;;9.73;2.75;;;;;;;;;;5048353;28;20148;-64
2022/05/30 08:29:34;;;;;;;7.63;2.42;;;;;;;;;;5049328;28;20045;-66
2022/05/30 08:32:00;;;;;;;;;;;;;;;;;;5049308;28;20114;-64
2022/05/30 08:34:26;;;;;;;8.05;2.10;;;;;;;;;;5048408;28;19924;-65
2022/05/30 08:36:52;;;;;;;6.55;2.30;;;;;;;;;;5048566;28;20131;-64
2022/05/30 08:42:04;;;;;;;6.97;2.15;;;;;;;;;;5048103;28;20404;-66
2022/05/30 08:44:32;;;;;;;6.20;2.03;;;;;;;;;;5048059;28;20072;-67
2022/05/30 08:47:02;;;;;;;9.68;2.40;;;;;;;;;;5047953;28;20053;-67
2022/05/30 08:49:33;;;;;;;5.63;2.20;;;;;;;;;;5047826;28;20088;-67
2022/05/30 08:51:59;;;;;;;5.53;1.95;;;;;;;;;;5046393;28;20098;-66
2022/05/30 08:54:30;;;;;;;5.32;1.90;;;;;;;;;;5048503;28;20063;-66
2022/05/30 08:56:57;;;;;;;10.27;2.83;;;;;;;;;;5048381;28;20067;-66
2022/05/30 08:59:42;;;;;;;8.68;2.40;;;;;;;;;;5048414;28;20131;-66
2022/05/30 09:02:28;;;;;;;9.30;2.90;;;;;;;;;;5048022;28;20207;-65
2022/05/30 09:05:05;;;;;;;7.22;2.30;;;;;;;;;;5048435;28;20102;-65
2022/05/30 09:07:34;;;;;;;6.13;2.25;;;;;;;;;;5046680;28;20119;-67
2022/05/30 09:10:13;;;;;;;7.55;2.10;;;;;;;;;;5048543;28;20129;-66
2022/05/30 09:12:44;;;;;;;5.80;1.98;;;;;;;;;;5048267;28;20166;-66
2022/05/30 09:15:22;;;;;;;12.25;2.40;;;;;;;;;;5048117;28;20053;-66
2022/05/30 09:17:54;;;;;;;6.78;2.15;;;;;;;;;;5048358;28;20059;-66
2022/05/30 09:20:22;;;;;;;8.63;2.53;;;;;;;;;;5048098;28;20159;-66
2022/05/30 09:22:48;;;;;;;7.60;2.20;;;;;;;;;;5047804;28;20109;-66
2022/05/30 09:28:00;;;;;;;9.37;2.40;;;;;;;;;;5048170;28;20048;-66
2022/05/30 09:30:34;;;;;;;7.43;2.33;;;;;;;;;;5048210;28;20283;-66
2022/05/30 09:33:03;;;;;;;7.40;2.42;;;;;;;;;;5047701;28;20369;-66
2022/05/30 09:35:31;;;;;;;9.75;2.47;;;;;;;;;;5051093;28;20049;-67
2022/05/30 09:38:09;;;;;;;7.20;2.28;;;;;;;;;;5051783;28;20056;-66
2022/05/30 09:40:38;;;;;;;5.32;2.10;;;;;;;;;;5050400;28;20552;-67
2022/05/30 09:43:06;;;;;;;7.90;2.50;;;;;;;;;;5051685;28;20052;-66
2022/05/30 09:45:33;;;;;;;9.65;2.75;;;;;;;;;;5051907;28;20183;-67
2022/05/30 09:47:59;;;;;;;;;;;;;;;;;;5050980;28;20057;-68
2022/05/30 09:50:25;;;;;;;7.78;2.30;;;;;;;;;;5051586;28;19985;-67
2022/05/30 09:52:51;;;;;;;6.45;2.28;;;;;;;;;;5050037;28;20052;-67
2022/05/30 09:55:26;;;;;;;8.25;2.67;;;;;;;;;;5051685;28;20574;-67
2022/05/30 09:57:53;;;;;;;6.68;2.20;;;;;;;;;;5053494;28;20045;-68
2022/05/30 10:00:22;;;;;;;8.23;2.40;;;;;;;;;;5051282;28;20098;-67
2022/05/30 10:02:58;;;;;;;5.20;1.75;;;;;;;;;;5051474;28;20116;-68
2022/05/30 10:05:26;;;;;;;6.82;2.03;;;;;;;;;;5051349;28;20151;-68
2022/05/30 10:08:03;;;;;;;9.45;2.25;;;;;;;;;;5051518;28;20045;-68
2022/05/30 10:10:33;;;;;;;6.63;2.25;;;;;;;;;;5049815;28;20041;-68
2022/05/30 10:13:06;;;;;;;5.75;2.03;;;;;;;;;;5049089;28;20044;-68
2022/05/30 10:15:39;;;;;;;4.43;1.80;;;;;;;;;;5048850;28;20041;-67
2022/05/30 10:18:16;;;;;;;4.00;1.70;;;;;;;;;;5050029;28;20445;-67
2022/05/30 10:20:45;;;;;;;6.82;1.92;;;;;;;;;;5049780;28;20048;-67
2022/05/30 10:28:54;;;;;;;3.65;1.50;;;;;;;;;;5050500;28;20053;-66
2022/05/30 10:31:20;;;;;;;5.10;1.52;;;;;;;;;;5049300;28;20047;-66
2022/05/30 10:33:56;;;;;;;4.60;1.88;;;;;;;;;;5049913;28;20132;-66
2022/05/30 10:36:25;;;;;;;5.00;1.73;;;;;;;;;;5048292;28;20069;-66
2022/05/30 10:39:14;;;;;;;5.72;1.90;;;;;;;;;;5049726;28;20118;-64
2022/05/30 10:41:44;;;;;;;7.13;2.17;;;;;;;;;;5046376;28;20457;-65
2022/05/30 10:44:23;;;;;;;7.53;2.30;;;;;;;;;;5049831;28;20120;-65
2022/05/30 10:47:01;;;;;;;6.63;2.20;;;;;;;;;;5049540;28;20202;-66
2022/05/30 10:49:30;;;;;;;6.65;2.30;;;;;;;;;;5032616;28;20132;-66
2022/05/30 10:52:01;;;;;;;5.40;1.90;;;;;;;;;;5050046;28;20323;-67
2022/05/30 10:54:33;;;;;;;5.55;2.15;;;;;;;;;;5049804;28;20045;-65
2022/05/30 10:57:19;;;;;;;5.30;2.00;;;;;;;;;;5049329;28;20123;-65
2022/05/30 10:59:48;;;;;;;7.63;2.38;;;;;;;;;;5049988;28;20111;-64
2022/05/30 11:02:30;;;;;;;7.82;2.45;;;;;;;;;;5050250;28;20194;-64
2022/05/30 11:05:08;;;;;;;8.32;2.50;;;;;;;;;;5048747;28;20160;-64
2022/05/30 11:07:39;;;;;;;11.07;2.47;;;;;;;;;;5050404;28;20136;-64
2022/05/30 11:10:10;;;;;;;5.38;2.15;;;;;;;;;;5048912;28;20071;-64
2022/05/30 11:12:38;;;;;;;7.45;2.45;;;;;;;;;;5050312;28;20106;-64
2022/05/30 11:15:11;;;;;;;5.78;2.10;;;;;;;;;;5050085;28;20120;-64
2022/05/30 11:17:37;;;;;;;6.22;1.85;;;;;;;;;;5049924;28;20410;-64
2022/05/30 11:20:10;;;;;;;6.90;1.90;;;;;;;;;;5050151;28;20066;-64
2022/05/30 11:22:39;;;;;;;7.30;2.03;;;;;;;;;;5047740;28;20076;-64
2022/05/30 11:25:07;;;;;;;7.25;2.08;;;;;;;;;;5049784;28;20511;-64
2022/05/30 11:27:37;;;;;;;6.70;2.38;;;;;;;;;;5049605;28;20045;-65
2022/05/30 11:30:03;;;;;;;6.88;2.33;;;;;;;;;;5031622;28;20068;-64
2022/05/30 11:32:45;;;;;;;9.55;2.50;;;;;;;;;;5049790;28;20049;-64
2022/05/30 11:35:24;;;;;;;15.48;2.92;;;;;;;;;;5049564;28;20124;-64
2022/05/30 11:38:10;;;;;;;9.93;2.30;;;;;;;;;;5049333;28;20139;-64
2022/05/30 11:40:36;;;;;;;13.02;2.70;;;;;;;;;;5037727;28;20056;-64
2022/05/30 11:43:15;;;;;;;4.35;1.98;;;;;;;;;;5047600;28;20473;-64
2022/05/30 11:45:41;;;;;;;5.03;2.00;;;;;;;;;;5049326;28;20185;-64
2022/05/30 11:48:30;;;;;;;5.53;1.90;;;;;;;;;;5048890;28;20079;-65
2022/05/30 11:50:59;;;;;;;3.22;1.70;;;;;;;;;;5037927;28;20052;-64
2022/05/30 11:53:48;;;;;;;3.38;1.60;;;;;;;;;;5048716;28;20064;-64
2022/05/30 11:56:20;;;;;;;6.07;2.00;;;;;;;;;;5048721;28;20468;-65
2022/05/30 11:58:57;;;;;;;4.88;2.05;;;;;;;;;;5047821;28;20493;-64
2022/05/30 12:01:24;;;;;;;8.75;1.90;;;;;;;;;;5048846;28;20036;-64
2022/05/30 12:04:10;;;;;;;4.43;1.98;;;;;;;;;;5048881;28;20124;-65
2022/05/30 12:06:55;;;;;;;12.45;2.40;;;;;;;;;;5048486;28;20146;-65
2022/05/30 12:09:40;;;;;;;7.18;2.00;;;;;;;;;;5048609;28;20397;-65
2022/05/30 12:12:15;;;;;;;6.78;2.33;;;;;;;;;;5048929;28;20357;-66
2022/05/30 12:14:56;;;;;;;6.32;2.00;;;;;;;;;;5048316;28;20127;-66
2022/05/30 12:23:47;;;;;;;8.93;2.60;;;;;;;;;;5048271;28;20141;-66
2022/05/30 12:26:05;;;;;;;10.27;3.08;;;;;;;;;;5048636;28;20136;-65
2022/05/30 12:28:31;;;;;;;9.65;3.50;;;;;;;;;;5048115;28;20433;-65
2022/05/30 12:30:58;;;;;;;8.05;3.00;;;;;;;;;;5047797;28;20095;-65
2022/05/30 12:33:27;;;;;;;11.90;3.05;;;;;;;;;;5047746;28;20114;-65
2022/05/30 12:36:09;;;;;;;7.90;2.60;;;;;;;;;;5048122;28;20044;-65
2022/05/30 12:38:53;;;;;;;9.88;3.03;;;;;;;;;;5046451;28;20159;-65
2022/05/30 12:41:23;;;;;;;7.07;2.80;;;;;;;;;;5046782;28;20091;-64
2022/05/30 12:43:49;;;;;;;9.05;2.58;;;;;;;;;;5047437;28;20056;-64
2022/05/30 12:46:17;;;;;;;8.20;2.70;;;;;;;;;;5046545;28;20479;-64
2022/05/30 12:49:03;;;;;;;8.82;2.55;;;;;;;;;;5047783;28;20053;-64
2022/05/30 12:51:31;;;;;;;5.60;1.90;;;;;;;;;;5046991;28;20041;-65
2022/05/30 12:53:57;;;;;;;5.72;2.08;;;;;;;;;;5047686;28;20465;-64
2022/05/30 12:56:43;;;;;;;12.30;3.20;;;;;;;;;;5047307;28;20108;-65
2022/05/30 12:59:25;;;;;;;11.55;3.15;;;;;;;;;;5047746;28;20068;-65
2022/05/30 13:01:53;;;;;;;30.88;5.63;;;;;;;;;;5045950;28;20063;-65
2022/05/30 13:04:26;;;;;;;36.22;5.65;;;;;;;;;;5047869;28;20053;-65
2022/05/30 13:06:58;;;;;;;6.88;2.35;;;;;;;;;;5047492;28;20080;-65
2022/05/30 13:09:25;;;;;;;9.32;3.20;;;;;;;;;;5049015;28;20111;-65
2022/05/30 13:11:51;;;;;;;6.13;2.10;;;;;;;;;;5051714;28;20117;-64
2022/05/30 13:14:36;;;;;;;7.80;2.05;;;;;;;;;;5051568;28;20049;-64
2022/05/30 13:17:26;;;;;;;8.65;2.15;;;;;;;;;;5052291;28;20149;-64
2022/05/30 13:19:56;;;;;;;6.05;2.20;;;;;;;;;;5052048;28;20110;-64
2022/05/30 13:22:28;;;;;;;5.88;2.30;;;;;;;;;;5052014;28;20089;-63
2022/05/30 13:24:54;;;;;;;7.13;2.30;;;;;;;;;;5052340;28;20091;-64
2022/05/30 13:27:20;;;;;;;;;;;;;;;;;;5052514;28;20107;-64
2022/05/30 13:29:46;;;;;;;8.60;2.50;;;;;;;;;;5052130;28;19921;-63
2022/05/30 13:32:13;;;;;;;7.38;2.60;;;;;;;;;;5050706;28;20049;-63
2022/05/30 13:34:50;;;;;;;7.53;2.55;;;;;;;;;;5051874;28;20049;-63
2022/05/30 13:37:23;;;;;;;9.77;2.80;;;;;;;;;;5052513;28;20068;-63
2022/05/30 13:39:49;;;;;;;6.38;2.30;;;;;;;;;;5051821;28;20106;-63
2022/05/30 13:42:15;;;;;;;8.20;2.58;;;;;;;;;;5051450;28;20148;-63
2022/05/30 13:44:42;;;;;;;8.65;3.00;;;;;;;;;;5051789;28;20059;-63
2022/05/30 13:47:12;;;;;;;9.95;2.95;;;;;;;;;;5051589;28;20053;-63
2022/05/30 13:49:42;;;;;;;8.05;2.85;;;;;;;;;;5051354;28;20048;-63
2022/05/30 13:52:13;;;;;;;7.60;2.70;;;;;;;;;;5051627;28;20453;-63
2022/05/30 13:54:43;;;;;;;8.05;2.88;;;;;;;;;;5051243;28;20055;-63
2022/05/30 13:57:11;;;;;;;9.40;2.78;;;;;;;;;;5051736;28;20132;-63
2022/05/30 13:59:42;;;;;;;6.50;2.40;;;;;;;;;;5051137;28;20065;-63
2022/05/30 14:02:17;;;;;;;13.65;2.75;;;;;;;;;;5050154;28;20134;-64
2022/05/30 14:04:48;;;;;;;7.55;2.47;;;;;;;;;;5051325;28;20477;-64
2022/05/30 14:07:18;;;;;;;6.78;2.42;;;;;;;;;;5051291;28;20099;-63
2022/05/30 14:09:45;;;;;;;9.75;2.92;;;;;;;;;;5051423;28;20067;-63
2022/05/30 14:12:11;;;;;;;;;;;;;;;;;;5051470;28;20059;-63
2022/05/30 14:14:38;;;;;;;8.25;2.20;;;;;;;;;;5051056;28;20373;-64
2022/05/30 14:17:05;;;;;;;6.70;2.17;;;;;;;;;;5051248;28;20108;-64
2022/05/30 14:19:35;;;;;;;7.88;2.47;;;;;;;;;;5050709;28;20053;-64
2022/05/30 14:22:08;;;;;;;12.27;2.35;;;;;;;;;;5049597;28;20388;-64
2022/05/30 14:24:35;;;;;;;6.35;2.10;;;;;;;;;;5050986;28;20045;-63
2022/05/30 14:27:02;;;;;;;6.18;2.10;;;;;;;;;;5050470;28;20532;-64
2022/05/30 14:29:40;;;;;;;6.63;2.00;;;;;;;;;;5050714;28;20112;-64
2022/05/30 14:32:21;;;;;;;6.18;2.00;;;;;;;;;;5050830;28;20131;-64
2022/05/30 14:35:03;;;;;;;6.38;2.10;;;;;;;;;;5050182;28;20053;-64
2022/05/30 14:37:29;;;;;;;6.75;2.30;;;;;;;;;;5050459;28;20130;-64
2022/05/30 14:39:57;;;;;;;5.38;1.70;;;;;;;;;;5048724;28;20127;-64
2022/05/30 14:42:25;;;;;;;6.18;2.00;;;;;;;;;;5050249;28;20056;-64
2022/05/30 14:44:53;;;;;;;4.68;1.70;;;;;;;;;;5048247;28;20535;-65
2022/05/30 14:47:28;;;;;;;4.20;1.75;;;;;;;;;;5048291;28;20059;-65
2022/05/30 14:50:13;;;;;;;3.08;1.70;;;;;;;;;;5050152;28;20128;-65
2022/05/30 14:52:46;;;;;;;5.28;2.10;;;;;;;;;;5050350;28;20088;-65
2022/05/30 14:55:16;;;;;;;4.57;1.88;;;;;;;;;;5050240;28;20044;-65
2022/05/30 14:57:46;;;;;;;5.60;1.88;;;;;;;;;;5049892;28;20425;-66
2022/05/30 15:00:22;;;;;;;7.25;2.22;;;;;;;;;;5049723;28;20048;-65
2022/05/30 15:05:33;;;;;;;6.78;1.90;;;;;;;;;;5049417;28;20206;-65
2022/05/30 15:07:59;;;;;;;6.68;2.17;;;;;;;;;;5049521;28;20415;-65
2022/05/30 15:10:25;;;;;;;4.93;2.00;;;;;;;;;;5049205;28;20148;-65
2022/05/30 15:12:51;;;;;;;5.85;1.90;;;;;;;;;;5049211;28;20048;-65
2022/05/30 15:15:17;;;;;;;6.50;2.40;;;;;;;;;;5049666;28;20128;-65
2022/05/30 15:17:43;;;;;;;6.22;2.25;;;;;;;;;;5047734;28;20128;-65
2022/05/30 15:20:10;;;;;;;10.57;2.40;;;;;;;;;;5049496;28;20103;-65